Time;durP1;ratioP1;P1;durP2;ratioP2;P2;SDS_P1;SDS_P2;PMS_P1;PMS_P2;Temp;Humidity;BMP_temperature;BMP_pressure;BME280_temperature;BME280_humidity;BME280_pressure;Samples;Min_cycle;Max_cycle;Signal;HPM_P1;HPM_P2
2023/02/14 00:01:36;;;;;;;209.45;62.95;;;;;;;2.00;100.00;101993.41;4972350;28;20490;-94
2023/02/14 00:04:03;;;;;;;234.05;61.47;;;;;;;1.68;100.00;101976.31;4972390;28;20035;-93
2023/02/14 00:06:34;;;;;;;169.15;56.47;;;;;;;1.68;100.00;101996.69;4990878;28;20022;-95
2023/02/14 00:09:00;;;;;;;131.20;47.58;;;;;;;1.45;100.00;101971.09;4970966;28;20026;-93
2023/02/14 00:11:26;;;;;;;199.50;59.13;;;;;;;1.36;100.00;101993.09;4970914;28;20089;-94
2023/02/14 00:16:35;;;;;;;192.45;60.50;;;;;;;1.51;100.00;101993.19;4976334;28;20038;-95
2023/02/14 00:19:04;;;;;;;168.75;55.38;;;;;;;1.47;100.00;101994.88;4975473;28;20039;-93
2023/02/14 00:21:31;;;;;;;201.35;60.05;;;;;;;1.43;100.00;102000.78;4974611;28;20038;-94
2023/02/14 00:23:56;;;;;;;225.27;63.42;;;;;;;1.48;100.00;101993.19;4972035;28;20449;-94
2023/02/14 00:26:22;;;;;;;184.43;56.75;;;;;;;1.45;100.00;101994.00;4963508;28;20022;-94
2023/02/14 00:28:47;;;;;;;141.98;50.85;;;;;;;1.38;100.00;101996.53;4971853;28;20123;-95
2023/02/14 00:31:13;;;;;;;172.25;57.45;;;;;;;1.14;100.00;101976.88;4962072;28;20041;-94
2023/02/14 00:33:39;;;;;;;133.13;51.63;;;;;;;1.08;100.00;101971.75;4971554;28;20034;-95
2023/02/14 00:36:08;;;;;;;221.15;59.83;;;;;;;1.10;100.00;101993.81;4959941;28;20552;-94
2023/02/14 00:38:34;;;;;;;164.88;51.67;;;;;;;0.90;100.00;101972.47;4970123;28;20027;-95
2023/02/14 00:41:00;;;;;;;141.88;51.33;;;;;;;0.96;100.00;101982.69;4958652;28;20037;-94
2023/02/14 00:43:26;;;;;;;190.98;54.90;;;;;;;0.91;100.00;101981.81;4974456;28;20027;-95
2023/02/14 00:45:51;;;;;;;162.32;51.13;;;;;;;0.74;100.00;101962.19;4974361;28;20102;-94
2023/02/14 00:48:17;;;;;;;183.23;57.17;;;;;;;0.68;100.00;101956.22;4971312;28;20565;-94
2023/02/14 00:50:45;;;;;;;203.35;56.67;;;;;;;0.70;100.00;101964.69;4958294;28;20027;-93
2023/02/14 00:53:10;;;;;;;152.35;51.67;;;;;;;0.66;100.00;101970.59;4971359;28;20038;-93
2023/02/14 00:55:36;;;;;;;208.40;62.25;;;;;;;1.49;100.00;101969.44;4958586;28;20465;-94
2023/02/14 00:58:01;;;;;;;163.38;56.22;;;;;;;1.27;100.00;101956.63;4974697;28;20508;-93
2023/02/14 01:00:27;;;;;;;289.55;65.07;;;;;;;1.07;100.00;101965.81;4974531;28;20085;-94
2023/02/14 01:02:52;;;;;;;176.95;54.97;;;;;;;0.87;100.00;101958.03;4973548;28;20027;-93
2023/02/14 01:05:18;;;;;;;224.93;59.03;;;;;;;0.81;100.00;101963.94;4973905;28;20023;-93
2023/02/14 01:07:43;;;;;;;196.07;57.28;;;;;;;0.76;100.00;101969.84;4970330;28;20598;-94
2023/02/14 01:10:09;;;;;;;178.48;54.45;;;;;;;0.68;100.00;101982.47;4970969;28;20035;-95
2023/02/14 01:12:35;;;;;;;169.80;52.33;;;;;;;0.50;100.00;101964.53;4970662;28;20452;-95
2023/02/14 01:15:00;;;;;;;173.10;52.05;;;;;;;0.48;100.00;101968.75;4971189;28;20031;-94
2023/02/14 01:17:26;;;;;;;120.88;46.42;;;;;;;0.41;100.00;101962.75;4954754;28;20537;-94
2023/02/14 01:19:53;;;;;;;147.07;49.53;;;;;;;0.40;100.00;101982.22;4967007;28;20489;-94
2023/02/14 01:22:18;;;;;;;146.60;49.35;;;;;;;0.39;100.00;101978.00;4974075;28;20259;-94
2023/02/14 01:24:44;;;;;;;149.95;52.13;;;;;;;0.23;100.00;101938.06;4972946;28;20061;-96
2023/02/14 01:27:09;;;;;;;154.68;52.92;;;;;;;0.28;100.00;101961.78;4974065;28;20054;-94
2023/02/14 01:29:35;;;;;;;165.90;50.25;;;;;;;0.20;100.00;101954.09;4970263;28;20502;-94
2023/02/14 01:32:00;;;;;;;147.57;50.83;;;;;;;0.28;100.00;101949.09;4954738;29;20038;-94
2023/02/14 01:34:26;;;;;;;204.65;56.83;;;;;;;0.20;100.00;101943.09;4961667;28;20370;-94
2023/02/14 01:36:51;;;;;;;131.18;49.10;;;;;;;0.35;100.00;101948.31;4973964;28;20081;-94
2023/02/14 01:39:18;;;;;;;146.35;52.05;;;;;;;0.61;100.00;101962.91;4973456;28;20031;-96
2023/02/14 01:41:48;;;;;;;189.70;55.65;;;;;;;0.54;100.00;101953.56;4970143;28;20035;-93
2023/02/14 01:44:13;;;;;;;199.65;57.55;;;;;;;0.64;100.00;101971.44;4976420;28;20118;-96
2023/02/14 01:46:40;;;;;;;197.82;56.95;;;;;;;0.55;100.00;101955.25;4970142;28;20524;-93
2023/02/14 01:49:24;;;;;;;222.60;60.97;;;;;;;0.57;100.00;101958.69;4976335;28;20035;-93
2023/02/14 01:52:00;;;;;;;206.77;57.90;;;;;;;0.75;100.00;101975.75;4983002;28;20027;-95
2023/02/14 01:54:27;;;;;;;179.73;54.90;;;;;;;0.62;100.00;101967.19;4989289;28;20026;-94
2023/02/14 01:57:11;;;;;;;171.40;54.80;;;;;;;0.72;100.00;101968.09;4973604;28;20114;-95
2023/02/14 01:59:41;;;;;;;184.38;56.25;;;;;;;0.69;100.00;101988.41;4973362;28;20071;-95
2023/02/14 02:02:07;;;;;;;168.65;53.38;;;;;;;0.57;100.00;101969.69;4973413;28;20034;-94
2023/02/14 02:04:37;;;;;;;149.63;49.05;;;;;;;0.73;100.00;102005.38;4972861;28;20026;-94
2023/02/14 02:07:06;;;;;;;148.40;50.45;;;;;;;0.49;100.00;101985.69;4973080;28;20126;-94
2023/02/14 02:09:34;;;;;;;196.40;55.97;;;;;;;0.49;100.00;101996.72;4972700;28;20038;-94
2023/02/14 02:12:00;;;;;;;150.30;51.28;;;;;;;0.19;100.00;101957.47;4973112;28;20023;-95
2023/02/14 02:14:26;;;;;;;176.63;53.08;;;;;;;0.36;100.00;101990.66;4972998;28;20473;-95
2023/02/14 02:16:58;;;;;;;236.38;58.45;;;;;;;0.41;100.00;101994.09;4970272;28;20038;-95
2023/02/14 02:19:58;;;;;;;191.30;58.05;;;;;;;0.59;100.00;102017.97;4953680;29;20085;-93
2023/02/14 02:22:35;;;;;;;268.70;62.17;;;;;;;0.84;100.00;102009.72;4977874;28;20514;-93
2023/02/14 02:25:38;;;;;;;262.02;67.28;;;;;;;1.23;100.00;101998.13;4972859;28;20030;-95
2023/02/14 02:28:28;;;;;;;251.65;62.08;;;;;;;1.14;100.00;102005.69;4970164;28;20027;-95
2023/02/14 02:31:33;;;;;;;201.02;60.08;;;;;;;1.09;100.00;101978.53;4963348;28;20069;-94
2023/02/14 02:34:36;;;;;;;195.65;58.33;;;;;;;1.27;100.00;101999.84;4957267;28;20101;-95
2023/02/14 02:37:34;;;;;;;224.38;61.30;;;;;;;1.40;100.00;102007.56;4972728;28;20061;-94
2023/02/14 02:40:05;;;;;;;207.95;61.65;;;;;;;1.47;100.00;102006.75;4987060;28;20385;-94
2023/02/14 02:42:58;;;;;;;249.23;65.47;;;;;;;1.64;100.00;102007.69;4972591;28;20088;-93
2023/02/14 02:45:24;;;;;;;287.35;70.10;;;;;;;1.88;100.00;101995.91;4972660;28;20489;-94
2023/02/14 02:48:08;;;;;;;322.42;75.63;;;;;;;2.06;100.00;102003.59;4972671;28;20139;-95
2023/02/14 02:53:44;;;;;;;257.58;69.18;;;;;;;2.37;100.00;102008.78;4960677;28;20038;-95
2023/02/14 02:56:45;;;;;;;268.33;71.68;;;;;;;2.50;100.00;102002.00;4971710;28;20061;-94
2023/02/14 02:59:26;;;;;;;318.10;75.60;;;;;;;2.39;100.00;101971.41;4940187;28;20497;-93
2023/02/14 03:02:17;;;;;;;380.33;82.55;;;;;;;2.61;100.00;101986.69;4968915;28;20035;-94
2023/02/14 03:04:57;;;;;;;293.02;72.40;;;;;;;2.57;100.00;101965.47;4970516;28;20027;-94
2023/02/14 03:07:34;;;;;;;364.48;82.07;;;;;;;2.84;100.00;102000.31;4976756;28;20497;-95
2023/02/14 03:10:20;;;;;;;381.77;85.80;;;;;;;2.85;100.00;101991.78;4975300;28;20023;-93
2023/02/14 03:13:01;;;;;;;359.83;82.55;;;;;;;2.91;100.00;101999.44;4976222;28;20073;-95
2023/02/14 03:15:26;;;;;;;394.00;87.22;;;;;;;3.00;100.00;101999.44;4971984;28;20031;-94
2023/02/14 03:21:13;;;;;;;328.70;77.90;;;;;;;3.10;100.00;101997.75;4977363;28;20034;-95
2023/02/14 03:23:52;;;;;;;336.52;81.35;;;;;;;2.97;100.00;101963.72;4975371;28;20057;-94
2023/02/14 03:26:26;;;;;;;296.52;78.05;;;;;;;3.22;100.00;101997.72;4966392;28;20035;-94
2023/02/14 03:29:19;;;;;;;313.88;79.85;;;;;;;3.28;100.00;101998.56;4975489;28;20018;-94
2023/02/14 03:32:01;;;;;;;247.68;72.30;;;;;;;3.22;100.00;101973.91;4975981;28;20031;-94
2023/02/14 03:34:42;;;;;;;276.23;73.32;;;;;;;3.37;100.00;101980.69;4975462;28;20045;-94
2023/02/14 03:37:14;;;;;;;314.47;79.83;;;;;;;3.30;100.00;101959.41;4975951;28;20031;-94
2023/02/14 03:39:57;;;;;;;294.30;77.22;;;;;;;3.43;100.00;101976.38;4975637;28;20264;-94
2023/02/14 03:42:35;;;;;;;258.20;72.45;;;;;;;3.43;100.00;101971.28;4976328;28;20035;-94
2023/02/14 03:45:04;;;;;;;299.33;79.75;;;;;;;3.56;100.00;101981.44;4972237;28;20051;-94
2023/02/14 03:47:34;;;;;;;332.90;82.28;;;;;;;3.50;100.00;101950.84;4956232;29;20027;-94
2023/02/14 03:50:09;;;;;;;325.35;80.10;;;;;;;3.67;100.00;101971.22;4959851;28;20118;-93
2023/02/14 03:52:36;;;;;;;270.90;75.25;;;;;;;3.57;100.00;101955.06;4975888;28;20097;-94
2023/02/14 03:55:05;;;;;;;263.88;75.82;;;;;;;3.68;100.00;101965.22;4975507;28;20070;-95
2023/02/14 03:57:58;;;;;;;279.50;75.07;;;;;;;3.70;100.00;101966.06;4975738;28;20166;-95
2023/02/14 04:00:24;;;;;;;232.00;74.75;;;;;;;3.62;100.00;101936.31;4968547;28;20027;-93
2023/02/14 04:02:58;;;;;;;268.70;76.43;;;;;;;3.64;100.00;101931.22;4971457;28;20035;-95
2023/02/14 04:05:26;;;;;;;227.85;69.45;;;;;;;3.79;100.00;101959.22;4971653;28;20028;-94
2023/02/14 04:07:56;;;;;;;283.52;76.57;;;;;;;3.64;100.00;101933.78;4972643;28;20498;-94
2023/02/14 04:10:22;;;;;;;257.98;73.05;;;;;;;3.76;100.00;101943.94;4970052;28;20096;-94
2023/02/14 04:12:49;;;;;;;237.63;72.35;;;;;;;3.92;100.00;101959.16;4975003;28;20520;-94
2023/02/14 04:15:15;;;;;;;264.20;73.78;;;;;;;3.86;100.00;101962.59;4974021;28;20034;-94
2023/02/14 04:20:25;;;;;;;190.25;64.57;;;;;;;3.88;100.00;101952.34;4974004;28;20389;-94
2023/02/14 04:22:51;;;;;;;207.57;66.30;;;;;;;4.02;100.00;101965.91;4974026;28;20039;-94
2023/02/14 04:25:17;;;;;;;182.07;61.90;;;;;;;3.88;100.00;101932.81;4969442;28;20062;-94
2023/02/14 04:27:43;;;;;;;203.85;61.75;;;;;;;4.08;100.00;101976.09;4974662;28;20027;-95
2023/02/14 04:30:11;;;;;;;204.75;64.32;;;;;;;4.07;100.00;101971.84;4974904;28;20049;-94
2023/02/14 04:32:38;;;;;;;209.45;61.92;;;;;;;4.13;100.00;101973.53;4974932;28;20026;-95
2023/02/14 04:35:04;;;;;;;186.32;58.85;;;;;;;4.07;100.00;101961.63;4975117;28;20142;-94
2023/02/14 04:37:29;;;;;;;211.50;56.63;;;;;;;4.31;100.00;101977.66;4965567;28;20506;-95
2023/02/14 04:39:55;;;;;;;157.68;52.97;;;;;;;4.21;100.00;101954.72;4974720;28;20027;-94
2023/02/14 04:42:20;;;;;;;181.85;57.30;;;;;;;4.23;100.00;101958.13;4974781;28;20030;-95
2023/02/14 04:44:46;;;;;;;195.90;54.13;;;;;;;4.29;100.00;101954.66;4972995;28;20031;-93
2023/02/14 04:47:11;;;;;;;179.93;51.95;;;;;;;4.38;100.00;101964.00;4957346;28;20174;-94
2023/02/14 04:49:37;;;;;;;207.43;55.42;;;;;;;4.28;100.00;101935.09;4971012;28;20035;-94
2023/02/14 04:52:03;;;;;;;205.85;54.15;;;;;;;4.38;100.00;101948.66;4974919;28;20068;-94
2023/02/14 04:54:29;;;;;;;160.30;50.08;;;;;;;4.33;100.00;101940.16;4970715;28;20481;-95
2023/02/14 04:56:54;;;;;;;147.32;48.90;;;;;;;4.43;100.00;101952.03;4955255;29;20034;-95
2023/02/14 04:59:21;;;;;;;172.32;53.80;;;;;;;4.37;100.00;101923.97;4968891;28;20019;-95
2023/02/14 05:01:47;;;;;;;107.13;45.88;;;;;;;4.59;100.00;101945.94;4970627;28;20031;-95
2023/02/14 05:04:12;;;;;;;134.90;51.15;;;;;;;4.43;100.00;101922.19;4967422;28;20033;-94
2023/02/14 05:06:38;;;;;;;137.07;49.95;;;;;;;4.42;100.00;101927.31;4972644;28;20045;-94
2023/02/14 05:09:03;;;;;;;233.10;56.22;;;;;;;4.50;100.00;101948.56;4973185;28;20500;-95
2023/02/14 05:11:30;;;;;;;145.35;51.72;;;;;;;4.46;100.00;101936.66;4973514;28;20026;-94
2023/02/14 05:13:55;;;;;;;204.00;57.30;;;;;;;4.38;100.00;101934.16;4965817;28;20027;-95
2023/02/14 05:16:21;;;;;;;233.05;59.60;;;;;;;4.54;100.00;101957.91;4989399;28;20022;-95
2023/02/14 05:18:47;;;;;;;199.85;57.60;;;;;;;4.45;100.00;101947.75;4974075;28;20488;-94
2023/02/14 05:21:12;;;;;;;183.57;54.42;;;;;;;4.42;100.00;101937.56;4972985;28;20097;-94
2023/02/14 05:23:38;;;;;;;210.93;59.22;;;;;;;4.35;100.00;101923.13;4970201;28;20024;-94
2023/02/14 05:26:04;;;;;;;147.52;53.70;;;;;;;4.43;100.00;101931.56;4961848;28;20367;-93
2023/02/14 05:28:30;;;;;;;128.82;50.05;;;;;;;4.48;100.00;101929.81;4973091;28;20029;-93
2023/02/14 05:30:56;;;;;;;149.82;52.30;;;;;;;4.55;100.00;101941.69;4970801;28;20541;-94
2023/02/14 05:33:22;;;;;;;128.48;50.38;;;;;;;4.72;100.00;101960.28;4969575;28;20364;-94
2023/02/14 05:35:47;;;;;;;119.82;47.30;;;;;;;4.78;100.00;101958.53;4972505;28;20077;-93
2023/02/14 05:38:13;;;;;;;106.90;46.22;;;;;;;4.74;100.00;101932.16;4972469;28;20069;-95
2023/02/14 05:40:39;;;;;;;115.70;47.08;;;;;;;4.89;100.00;101944.78;4969170;28;20122;-93
2023/02/14 05:43:05;;;;;;;118.65;46.05;;;;;;;4.91;100.00;101944.78;4953612;28;20031;-94
2023/02/14 05:45:30;;;;;;;112.63;46.03;;;;;;;4.93;100.00;101945.63;4972134;28;20465;-94
2023/02/14 05:47:56;;;;;;;113.00;46.47;;;;;;;5.04;100.00;101951.47;4972750;28;20060;-94
2023/02/14 05:50:21;;;;;;;115.60;47.22;;;;;;;4.92;100.00;101931.13;4972903;28;20029;-94
2023/02/14 05:52:47;;;;;;;101.70;44.15;;;;;;;4.91;100.00;101929.44;4969235;28;20066;-95
2023/02/14 05:55:12;;;;;;;131.18;48.42;;;;;;;5.01;100.00;101938.72;4953496;29;20113;-95
2023/02/14 05:57:38;;;;;;;110.97;45.50;;;;;;;5.06;100.00;101936.94;4964387;28;20034;-96
2023/02/14 06:00:05;;;;;;;104.97;45.60;;;;;;;5.06;100.00;101924.16;4972701;28;20018;-94
2023/02/14 06:02:31;;;;;;;99.10;42.40;;;;;;;5.28;100.00;101940.13;4967391;28;20067;-94
2023/02/14 06:04:57;;;;;;;105.13;43.00;;;;;;;5.17;100.00;101930.88;4953237;29;20109;-95
2023/02/14 06:07:23;;;;;;;93.80;43.10;;;;;;;5.28;100.00;101945.25;4961169;28;20030;-95
2023/02/14 06:09:48;;;;;;;98.38;42.45;;;;;;;5.13;100.00;101919.81;4953163;29;20031;-94
2023/02/14 06:12:14;;;;;;;104.55;45.88;;;;;;;5.23;100.00;101938.50;4959754;28;20063;-94
2023/02/14 06:14:43;;;;;;;110.95;46.85;;;;;;;5.18;100.00;101935.13;4972284;28;20030;-93
2023/02/14 06:17:10;;;;;;;109.95;45.45;;;;;;;5.17;100.00;101929.19;4966877;28;20394;-94
2023/02/14 06:19:36;;;;;;;114.40;46.83;;;;;;;5.25;100.00;101942.72;4965194;28;20038;-96
2023/02/14 06:22:01;;;;;;;111.97;45.22;;;;;;;5.35;100.00;101946.03;4971441;28;20460;-94
2023/02/14 06:24:27;;;;;;;118.03;47.97;;;;;;;5.24;100.00;101935.06;4972367;28;20035;-95
2023/02/14 06:26:53;;;;;;;117.53;45.78;;;;;;;5.29;100.00;101951.19;4972228;28;20018;-95
2023/02/14 06:29:18;;;;;;;131.50;47.40;;;;;;;5.26;100.00;101941.00;4968892;28;20033;-95
2023/02/14 06:31:44;;;;;;;120.93;46.75;;;;;;;5.27;100.00;101943.56;4953371;28;20122;-95
2023/02/14 06:34:10;;;;;;;131.57;46.65;;;;;;;5.35;100.00;101966.50;4970602;28;20059;-94
2023/02/14 06:36:35;;;;;;;132.10;45.83;;;;;;;5.35;100.00;101958.84;4913133;28;1433503;-94
2023/02/14 06:39:01;;;;;;;108.72;42.88;;;;;;;5.40;100.00;101958.78;4971883;28;20122;-94
2023/02/14 06:41:26;;;;;;;119.60;48.33;;;;;;;5.17;100.00;101936.84;4971790;28;20027;-94
2023/02/14 06:43:52;;;;;;;165.73;48.50;;;;;;;5.25;100.00;101959.81;4968183;28;20027;-94
2023/02/14 06:46:18;;;;;;;143.85;47.45;;;;;;;5.33;100.00;101963.97;4968796;28;20090;-93
2023/02/14 06:48:43;;;;;;;142.75;47.83;;;;;;;5.30;100.00;101964.00;4972858;28;20022;-94
2023/02/14 06:51:09;;;;;;;103.82;43.85;;;;;;;5.21;100.00;101947.91;4969248;28;20059;-96
2023/02/14 06:53:35;;;;;;;120.72;45.00;;;;;;;5.19;100.00;101954.72;4969163;28;20393;-95
2023/02/14 06:56:01;;;;;;;166.55;45.88;;;;;;;5.06;100.00;101934.38;4977408;28;20090;-95
2023/02/14 06:58:26;;;;;;;141.93;44.33;;;;;;;5.23;100.00;101966.66;4972752;28;20031;-95
2023/02/14 07:00:56;;;;;;;122.35;45.72;;;;;;;5.28;100.00;101960.59;4972124;28;20027;-93
2023/02/14 07:03:22;;;;;;;112.63;44.50;;;;;;;5.14;100.00;101942.84;4972713;28;20137;-95
2023/02/14 07:05:47;;;;;;;175.18;47.72;;;;;;;5.17;100.00;101956.47;4973656;28;20021;-94
2023/02/14 07:08:13;;;;;;;208.15;47.83;;;;;;;5.19;100.00;101959.84;4967784;28;20027;-94
2023/02/14 07:10:39;;;;;;;187.55;47.55;;;;;;;5.22;100.00;101962.38;4965908;28;20041;-95
2023/02/14 07:13:05;;;;;;;153.60;46.75;;;;;;;5.24;100.00;101958.97;4968941;28;20062;-95
2023/02/14 07:15:30;;;;;;;140.45;47.70;;;;;;;5.18;100.00;101964.13;4952946;29;20070;-94
2023/02/14 07:17:56;;;;;;;109.63;42.92;;;;;;;5.24;100.00;101963.22;4965331;28;20022;-93
2023/02/14 07:20:22;;;;;;;152.43;46.63;;;;;;;5.17;100.00;101962.44;4972169;28;20038;-94
2023/02/14 07:22:47;;;;;;;135.15;45.03;;;;;;;5.06;100.00;101954.88;4972382;28;20088;-95
2023/02/14 07:25:13;;;;;;;91.88;41.22;;;;;;;5.09;100.00;101953.97;4988614;28;20121;-94
2023/02/14 07:27:39;;;;;;;106.80;42.92;;;;;;;5.23;100.00;101966.66;4959563;28;20034;-94
2023/02/14 07:30:06;;;;;;;74.80;36.47;;;;;;;5.31;100.00;101985.31;4988453;28;20030;-94
2023/02/14 07:32:33;;;;;;;96.60;40.50;;;;;;;5.21;100.00;101964.09;4972237;28;20031;-94
2023/02/14 07:34:58;;;;;;;107.38;42.22;;;;;;;5.24;100.00;101968.31;4972058;28;20027;-94
2023/02/14 07:37:24;;;;;;;95.00;40.08;;;;;;;5.20;100.00;101956.44;4972572;28;20031;-93
2023/02/14 07:39:49;;;;;;;102.75;40.40;;;;;;;5.20;100.00;101964.13;4972073;28;20038;-95
2023/02/14 07:42:15;;;;;;;116.85;42.05;;;;;;;5.18;100.00;101958.16;4972402;28;20496;-94
2023/02/14 07:44:41;;;;;;;96.72;40.35;;;;;;;5.28;100.00;101964.88;4971513;28;20105;-94
2023/02/14 07:47:08;;;;;;;96.63;42.30;;;;;;;5.23;100.00;101964.09;4972388;28;20140;-95
2023/02/14 07:49:34;;;;;;;76.35;37.28;;;;;;;5.30;100.00;101961.44;4970940;28;20041;-95
2023/02/14 07:52:00;;;;;;;82.10;39.92;;;;;;;5.34;100.00;101969.91;4976400;28;20477;-94
2023/02/14 07:54:26;;;;;;;86.57;40.63;;;;;;;5.28;100.00;101962.31;4971372;28;20035;-94
2023/02/14 07:56:51;;;;;;;88.55;39.38;;;;;;;5.31;100.00;101955.44;4974975;28;20023;-95
2023/02/14 07:59:17;;;;;;;83.15;39.30;;;;;;;5.41;100.00;101963.03;4975776;28;20033;-94
2023/02/14 08:01:42;;;;;;;80.25;39.03;;;;;;;5.49;100.00;102002.22;4975482;28;20030;-94
2023/02/14 08:04:08;;;;;;;74.22;34.03;;;;;;;5.26;100.00;101962.31;4975793;28;20424;-96
2023/02/14 08:06:34;;;;;;;68.32;34.40;;;;;;;5.17;100.00;101948.78;4975584;28;20035;-96
2023/02/14 08:09:00;;;;;;;75.57;34.45;;;;;;;5.15;100.00;101954.78;4973306;28;20030;-96
2023/02/14 08:14:09;;;;;;;59.03;32.00;;;;;;;5.39;100.00;101951.94;4966150;28;20038;-96
2023/02/14 08:16:36;;;;;;;62.60;33.05;;;;;;;5.34;100.00;101950.31;4972490;28;20039;-96
2023/02/14 08:19:03;;;;;;;59.22;32.60;;;;;;;5.31;100.00;101958.00;4969708;28;20042;-96
2023/02/14 08:21:29;;;;;;;58.67;30.77;;;;;;;5.37;100.00;101954.53;4989303;28;20038;-96
2023/02/14 08:23:55;;;;;;;57.65;30.40;;;;;;;5.62;100.00;101954.25;4976308;28;20027;-96
2023/02/14 08:26:20;;;;;;;56.70;30.48;;;;;;;5.89;100.00;101984.63;4967045;28;20363;-95
2023/02/14 08:28:46;;;;;;;64.20;32.08;;;;;;;5.84;100.00;101950.53;4992949;28;20113;-95
2023/02/14 08:31:11;;;;;;;53.72;30.90;;;;;;;6.38;100.00;101975.44;4971856;28;20425;-95
2023/02/14 08:33:37;;;;;;;53.63;29.83;;;;;;;7.32;100.00;101950.72;4971387;28;20027;-96
2023/02/14 08:36:03;;;;;;;46.80;28.00;;;;;;;7.18;100.00;101943.28;4971095;28;20117;-96
2023/02/14 08:38:28;;;;;;;51.47;26.48;;;;;;;7.06;100.00;101957.19;4975079;28;20109;-96
2023/02/14 08:40:58;;;;;;;47.45;25.98;;;;;;;6.81;100.00;101967.88;4973922;28;20065;-96
2023/02/14 08:43:24;;;;;;;46.03;25.88;;;;;;;6.83;100.00;101966.16;4974162;28;20613;-96
2023/02/14 08:45:53;;;;;;;41.10;23.38;;;;;;;6.79;100.00;101995.28;4974266;28;20109;-96
2023/02/14 08:48:18;;;;;;;37.30;23.65;;;;;;;6.79;100.00;101982.47;4977833;28;20030;-95
2023/02/14 08:50:44;;;;;;;38.03;24.15;;;;;;;6.78;100.00;101998.75;4975763;28;20030;-96
2023/02/14 08:53:12;;;;;;;39.78;23.05;;;;;;;6.68;100.00;101981.78;4978299;28;20030;-95
2023/02/14 08:55:38;;;;;;;35.13;21.15;;;;;;;7.17;100.00;101974.94;4981887;28;20185;-96
2023/02/14 08:58:05;;;;;;;33.75;21.85;;;;;;;7.63;100.00;101985.19;4983865;28;20397;-95
2023/02/14 09:00:32;;;;;;;38.78;22.33;;;;;;;7.95;100.00;101978.53;4991751;28;20097;-96
2023/02/14 09:02:57;;;;;;;33.83;20.42;;;;;;;8.06;100.00;101976.56;4990704;28;20023;-96
2023/02/14 09:05:23;;;;;;;55.75;22.02;;;;;;;8.46;100.00;101970.53;4987079;28;20101;-95
2023/02/14 09:07:49;;;;;;;30.83;19.45;;;;;;;8.23;100.00;101972.75;4976837;28;20027;-96
2023/02/14 09:10:17;;;;;;;29.67;18.95;;;;;;;9.14;100.00;101963.66;4971780;28;20041;-96
2023/02/14 09:12:43;;;;;;;30.42;18.85;;;;;;;9.43;96.27;101986.03;4973474;28;20030;-96
2023/02/14 09:15:10;;;;;;;28.15;17.63;;;;;;;9.19;96.63;101959.22;4974126;28;20118;-96
2023/02/14 09:17:36;;;;;;;29.23;17.52;;;;;;;9.19;95.66;101949.78;4987693;28;20026;-96
2023/02/14 09:20:04;;;;;;;24.63;16.83;;;;;;;10.33;90.84;101992.88;4994724;28;20034;-96
2023/02/14 09:22:30;;;;;;;23.77;16.42;;;;;;;9.96;87.81;101951.84;4982095;28;20030;-96
2023/02/14 09:24:55;;;;;;;40.97;17.63;;;;;;;9.37;92.78;101951.00;4990175;28;20065;-96
2023/02/14 09:27:21;;;;;;;31.50;17.77;;;;;;;10.43;90.79;101989.09;4985533;28;20026;-96
2023/02/14 09:29:46;;;;;;;101.50;21.30;;;;;;;10.97;81.18;101974.41;4974771;28;20035;-95
2023/02/14 09:32:12;;;;;;;37.67;16.98;;;;;;;10.96;82.72;101987.38;4973820;28;20535;-95
2023/02/14 09:34:37;;;;;;;20.83;14.90;;;;;;;12.18;73.95;101956.19;4977493;28;20129;-95
2023/02/14 09:39:47;;;;;;;23.08;13.85;;;;;;;12.52;70.64;101945.28;4979919;28;20122;-96
2023/02/14 09:42:31;;;;;;;25.52;14.23;;;;;;;12.94;70.72;101985.00;4973489;28;20121;-96
2023/02/14 09:45:03;;;;;;;29.67;14.18;;;;;;;16.52;55.89;101969.75;4982157;28;20109;-96
2023/02/14 09:47:46;;;;;;;21.42;12.95;;;;;;;15.73;56.23;101994.97;4977080;28;20033;-96
2023/02/14 09:50:53;;;;;;;26.83;13.25;;;;;;;17.44;51.32;101967.69;4977591;28;20061;-96
2023/02/14 09:53:27;;;;;;;20.35;13.35;;;;;;;19.82;44.23;101959.66;4976445;28;20027;-96
2023/02/14 09:56:18;;;;;;;17.60;11.68;;;;;;;22.22;40.73;101960.41;4976400;28;20022;-96
2023/02/14 09:59:02;;;;;;;13.93;11.03;;;;;;;20.21;42.36;102004.03;4985079;28;20030;-96
2023/02/14 10:01:35;;;;;;;16.50;11.38;;;;;;;22.12;40.54;101967.38;4989901;28;20034;-96
2023/02/14 10:04:49;;;;;;;21.42;12.98;;;;;;;22.32;38.70;101989.41;4981817;28;20030;-96
2023/02/14 10:07:56;;;;;;;15.75;11.77;;;;;;;22.51;38.44;101991.34;4993786;28;20136;-96
2023/02/14 10:10:39;;;;;;;16.20;11.98;;;;;;;19.64;44.13;102003.69;4990944;28;20030;-96
2023/02/14 10:13:17;;;;;;;14.23;11.82;;;;;;;20.47;42.14;101999.50;4992328;28;20027;-96
2023/02/14 10:15:58;;;;;;;16.20;12.15;;;;;;;22.96;37.65;101985.78;4987866;28;20050;-96
2023/02/14 10:18:39;;;;;;;16.33;12.02;;;;;;;21.42;39.15;101980.94;4996943;28;20049;-96
2023/02/14 10:21:14;;;;;;;14.65;11.60;;;;;;;20.53;40.31;101981.53;4974546;28;20046;-96
2023/02/14 10:23:56;;;;;;;16.25;12.57;;;;;;;19.32;43.04;102007.75;4986869;28;20031;-96
2023/02/14 10:26:35;;;;;;;17.40;13.13;;;;;;;20.88;41.03;102003.44;4984152;28;20011;-96
2023/02/14 10:29:02;;;;;;;17.75;11.80;;;;;;;22.05;38.00;101971.44;4999006;28;20018;-96
2023/02/14 10:31:36;;;;;;;13.35;11.27;;;;;;;22.70;37.15;101997.69;4976206;28;20031;-96
2023/02/14 10:34:18;;;;;;;15.73;11.43;;;;;;;22.97;36.35;101979.56;4980947;28;20539;-96
2023/02/14 10:36:48;;;;;;;15.95;11.73;;;;;;;22.90;36.74;101967.88;4982117;28;20030;-96
2023/02/14 10:39:59;;;;;;;14.15;10.43;;;;;;;22.87;37.02;101994.47;4982772;28;20027;-96
2023/02/14 10:47:41;;;;;;;14.15;10.75;;;;;;;24.80;33.97;102002.88;5007049;28;20042;-95
2023/02/14 10:51:18;;;;;;;15.68;10.65;;;;;;;21.76;38.08;101994.84;5009685;28;20068;-96
2023/02/14 10:54:25;;;;;;;14.02;10.80;;;;;;;22.18;37.70;101993.13;5006966;28;20056;-96
2023/02/14 10:59:34;;;;;;;13.55;10.68;;;;;;;23.14;37.01;101995.72;4973653;28;20047;-96
2023/02/14 11:02:00;;;;;;;13.82;10.05;;;;;;;24.21;34.69;101980.97;4964037;28;20105;-96
2023/02/14 11:04:46;;;;;;;14.38;9.82;;;;;;;24.25;34.42;101950.69;4982588;28;20018;-96
2023/02/14 11:07:38;;;;;;;12.18;9.20;;;;;;;25.18;32.58;101937.66;4981867;28;20035;-96
2023/02/14 11:10:12;;;;;;;12.75;9.50;;;;;;;24.94;32.95;101983.06;4966212;28;20039;-95
2023/02/14 11:12:40;;;;;;;11.13;9.43;;;;;;;25.71;32.03;101938.72;4976447;28;20030;-96
2023/02/14 11:15:13;;;;;;;11.43;9.48;;;;;;;25.83;31.93;101956.03;4978067;28;20010;-96
2023/02/14 11:17:39;;;;;;;10.93;9.18;;;;;;;24.83;33.40;101964.78;4956720;28;20038;-96
2023/02/14 11:20:21;;;;;;;13.00;9.52;;;;;;;23.88;34.62;101975.16;4974670;28;20019;-96
2023/02/14 11:22:48;;;;;;;11.52;8.85;;;;;;;25.49;32.97;101946.13;4960622;28;20086;-96
2023/02/14 11:25:26;;;;;;;13.25;9.32;;;;;;;25.26;32.54;101943.03;4963739;28;20030;-96
2023/02/14 11:28:12;;;;;;;10.93;8.80;;;;;;;26.48;31.09;101943.34;4963582;28;20551;-96
2023/02/14 11:30:44;;;;;;;10.40;8.63;;;;;;;24.87;32.90;101955.56;4962713;28;20034;-96
2023/02/14 11:33:33;;;;;;;14.63;8.63;;;;;;;24.81;33.88;101964.91;4992495;28;20034;-96
2023/02/14 11:35:59;;;;;;;8.55;7.53;;;;;;;25.12;32.42;101943.53;4960440;28;20038;-96
2023/02/14 11:38:29;;;;;;;12.20;8.15;;;;;;;23.63;34.54;101954.53;4961903;28;20027;-96
2023/02/14 11:40:57;;;;;;;10.05;7.93;;;;;;;25.07;32.58;101929.91;4963774;28;20062;-96
2023/02/14 11:43:30;;;;;;;10.05;7.55;;;;;;;25.49;32.45;101919.69;4964839;28;20591;-96
2023/02/14 11:46:29;;;;;;;11.52;8.27;;;;;;;25.38;31.97;101911.94;4963683;28;20023;-96